Maersk Lirquen — VRKB8 — position and weather

sailwx.info

Track history (hours):
 
Tides and Currents Weather Stations Pressure Air Temp Water Temp Dewpoint Dewpoint Depression Visibility Wind Speed Wind Dir Waves Ship Positions

Maersk Lirquen

Last reported at 2016-Dec-08 02:00 UTC. Time now 2016-Dec-08 11:55 UTC.
Position N 20°30' E 113°24'.

Length 300 m; draft 13 m.

Type: Ship (hazmat cat A). MMSI: 477423500.

Wind from 050 at 19 knots

Barometer 1016.3 mb
Air temperature 24.0 ° C
Visibility: greater than 5.4 NM
Dewpoint 16.7 ° C
Water temperature 26.0 ° C

Date/timePositionNaut miles runAvg speedWind from/ knotsBaromVisibWave heightAir tempDewpointWater temp
2016-Dec-08 02:00N 20°30' E 113°24'11416.6 050 / 191016.3 5.4 24.016.726.0
2016-Dec-07 19:06N 22°17' E 114°06'3 5.2
2016-Dec-07 18:33N 22°20' E 114°07'1 0.0
2016-Dec-07 00:33N 22°19' E 114°07'17 1.8
2016-Dec-06 15:09N 22°34' E 114°16'0 0.0
2016-Dec-06 12:21N 22°34' E 114°16'0 0.0
2016-Dec-06 11:16N 22°34' E 114°16'0 0.0
2016-Dec-06 09:25N 22°34' E 114°16'31 4.5
2016-Dec-06 02:28N 22°16' E 113°48'1212.7
2016-Dec-06 01:33N 22°27' E 113°52'1 0.6
2016-Dec-06 00:29N 22°28' E 113°53'0 0.0
2016-Dec-05 23:29N 22°28' E 113°53'0 0.0
2016-Dec-05 22:05N 22°28' E 113°53'0 0.0
2016-Dec-05 21:29N 22°28' E 113°53'0 0.0
2016-Dec-05 20:29N 22°28' E 113°53'0 0.0
2016-Dec-05 19:29N 22°28' E 113°53'0 0.0
2016-Dec-05 15:17N 22°28' E 113°53'0 0.0
2016-Dec-05 14:29N 22°28' E 113°53'0 0.0
2016-Dec-05 13:05N 22°28' E 113°53'0 0.0
2016-Dec-05 12:29N 22°28' E 113°53'0 0.0
2016-Dec-05 11:23N 22°28' E 113°53'0 0.0
2016-Dec-05 10:29N 22°28' E 113°53'0 0.0
2016-Dec-05 09:29N 22°28' E 113°53'0 0.2
2016-Dec-05 08:33N 22°28' E 113°52'10 9.5
2016-Dec-05 07:33N 22°19' E 113°48'6411.4
2016-Dec-05 02:00N 22°00' E 114°54'11417.8 040 / 151018.110.8 24.019.423.0
2016-Dec-04 19:33N 22°46' E 116°47'1916.3
2016-Dec-04 18:22N 22°57' E 117°04'8215.6
2016-Dec-04 13:06N 23°49' E 118°14'916.1
2016-Dec-04 12:32N 23°54' E 118°22'6716.8
2016-Dec-04 08:32N 24°33' E 119°22'2016.9
2016-Dec-04 07:21N 24°45' E 119°40'1417.0
2016-Dec-04 06:30N 24°53' E 119°53'7115.7
2016-Dec-04 02:00N 25°48' E 120°42'24815.8 050 / 151019.2 5.4 20.017.623.0
2016-Dec-03 10:17N 29°38' E 122°27'1115.7
2016-Dec-03 09:33N 29°46' E 122°18'1211.9
2016-Dec-03 08:34N 29°55' E 122°09'6 5.3
2016-Dec-03 07:30N 29°53' E 122°03'0 0.0
2016-Dec-03 06:24N 29°53' E 122°03'0 0.0
2016-Dec-03 05:30N 29°53' E 122°03'0 0.0
2016-Dec-03 04:30N 29°53' E 122°03'0 0.0
2016-Dec-03 03:33N 29°53' E 122°03'0 0.0
2016-Dec-03 02:27N 29°53' E 122°03'0 0.1
2016-Dec-03 01:30N 29°53' E 122°03'0 0.1
2016-Dec-03 00:33N 29°53' E 122°03'0 0.0
2016-Dec-02 23:15N 29°53' E 122°03'0 0.0
2016-Dec-02 22:33N 29°53' E 122°03'0 0.0
2016-Dec-02 21:30N 29°53' E 122°03'0 0.0
2016-Dec-02 20:30N 29°53' E 122°03'0 0.0
2016-Dec-02 19:33N 29°53' E 122°03'0 0.0
2016-Dec-02 18:33N 29°53' E 122°03'0 0.0
2016-Dec-02 17:30N 29°53' E 122°03'0 0.0
2016-Dec-02 16:33N 29°53' E 122°03'0 0.0
2016-Dec-02 15:33N 29°53' E 122°03'0 0.0
2016-Dec-02 14:21N 29°53' E 122°03'0 0.1
2016-Dec-02 13:30N 29°53' E 122°03'0 0.0
2016-Dec-02 12:27N 29°53' E 122°03'0 0.0
2016-Dec-02 11:30N 29°53' E 122°03'0 0.0
2016-Dec-02 10:33N 29°53' E 122°03'0 0.0
2016-Dec-02 07:33N 29°53' E 122°03'0 0.0
2016-Dec-02 04:22N 29°53' E 122°03'0 0.0
2016-Dec-02 02:30N 29°53' E 122°03'4 4.3
2016-Dec-02 01:33N 29°55' E 122°07'1312.9
2016-Dec-02 00:33N 29°46' E 122°17'1715.8
2016-Dec-01 23:29N 29°41' E 122°36'  
2016-Nov-29 14:30N 30°27' E 122°46'  
Track history (hours):
 
Tides and Currents Weather Stations Pressure Air Temp Water Temp Dewpoint Dewpoint Depression Visibility Wind Speed Wind Dir Waves Ship Positions

Maersk Lirquen

Last reported at 2016-Dec-08 02:00 UTC. Time now 2016-Dec-08 11:55 UTC.
Position N 20°30' E 113°24'.

Length 300 m; draft 13 m.

Type: Ship (hazmat cat A). MMSI: 477423500.

Wind from 050 at 19 knots

Barometer 1016.3 mb
Air temperature 24.0 ° C
Visibility: greater than 5.4 NM
Dewpoint 16.7 ° C
Water temperature 26.0 ° C

Date/timePositionNaut miles runAvg speedWind from/ knotsBaromVisibWave heightAir tempDewpointWater temp
2016-Dec-08 02:00N 20°30' E 113°24'11416.6 050 / 191016.3 5.4 24.016.726.0
2016-Dec-07 19:06N 22°17' E 114°06'3 5.2
2016-Dec-07 18:33N 22°20' E 114°07'1 0.0
2016-Dec-07 00:33N 22°19' E 114°07'17 1.8
2016-Dec-06 15:09N 22°34' E 114°16'0 0.0
2016-Dec-06 12:21N 22°34' E 114°16'0 0.0
2016-Dec-06 11:16N 22°34' E 114°16'0 0.0
2016-Dec-06 09:25N 22°34' E 114°16'31 4.5
2016-Dec-06 02:28N 22°16' E 113°48'1212.7
2016-Dec-06 01:33N 22°27' E 113°52'1 0.6
2016-Dec-06 00:29N 22°28' E 113°53'0 0.0
2016-Dec-05 23:29N 22°28' E 113°53'0 0.0
2016-Dec-05 22:05N 22°28' E 113°53'0 0.0
2016-Dec-05 21:29N 22°28' E 113°53'0 0.0
2016-Dec-05 20:29N 22°28' E 113°53'0 0.0
2016-Dec-05 19:29N 22°28' E 113°53'0 0.0
2016-Dec-05 15:17N 22°28' E 113°53'0 0.0
2016-Dec-05 14:29N 22°28' E 113°53'0 0.0
2016-Dec-05 13:05N 22°28' E 113°53'0 0.0
2016-Dec-05 12:29N 22°28' E 113°53'0 0.0
2016-Dec-05 11:23N 22°28' E 113°53'0 0.0
2016-Dec-05 10:29N 22°28' E 113°53'0 0.0
2016-Dec-05 09:29N 22°28' E 113°53'0 0.2
2016-Dec-05 08:33N 22°28' E 113°52'10 9.5
2016-Dec-05 07:33N 22°19' E 113°48'6411.4
2016-Dec-05 02:00N 22°00' E 114°54'11417.8 040 / 151018.110.8 24.019.423.0
2016-Dec-04 19:33N 22°46' E 116°47'1916.3
2016-Dec-04 18:22N 22°57' E 117°04'8215.6
2016-Dec-04 13:06N 23°49' E 118°14'916.1
2016-Dec-04 12:32N 23°54' E 118°22'6716.8
2016-Dec-04 08:32N 24°33' E 119°22'2016.9
2016-Dec-04 07:21N 24°45' E 119°40'1417.0
2016-Dec-04 06:30N 24°53' E 119°53'7115.7
2016-Dec-04 02:00N 25°48' E 120°42'24815.8 050 / 151019.2 5.4 20.017.623.0
2016-Dec-03 10:17N 29°38' E 122°27'1115.7
2016-Dec-03 09:33N 29°46' E 122°18'1211.9
2016-Dec-03 08:34N 29°55' E 122°09'6 5.3
2016-Dec-03 07:30N 29°53' E 122°03'0 0.0
2016-Dec-03 06:24N 29°53' E 122°03'0 0.0
2016-Dec-03 05:30N 29°53' E 122°03'0 0.0
2016-Dec-03 04:30N 29°53' E 122°03'0 0.0
2016-Dec-03 03:33N 29°53' E 122°03'0 0.0
2016-Dec-03 02:27N 29°53' E 122°03'0 0.1
2016-Dec-03 01:30N 29°53' E 122°03'0 0.1
2016-Dec-03 00:33N 29°53' E 122°03'0 0.0
2016-Dec-02 23:15N 29°53' E 122°03'0 0.0
2016-Dec-02 22:33N 29°53' E 122°03'0 0.0
2016-Dec-02 21:30N 29°53' E 122°03'0 0.0
2016-Dec-02 20:30N 29°53' E 122°03'0 0.0
2016-Dec-02 19:33N 29°53' E 122°03'0 0.0
2016-Dec-02 18:33N 29°53' E 122°03'0 0.0
2016-Dec-02 17:30N 29°53' E 122°03'0 0.0
2016-Dec-02 16:33N 29°53' E 122°03'0 0.0
2016-Dec-02 15:33N 29°53' E 122°03'0 0.0
2016-Dec-02 14:21N 29°53' E 122°03'0 0.1
2016-Dec-02 13:30N 29°53' E 122°03'0 0.0
2016-Dec-02 12:27N 29°53' E 122°03'0 0.0
2016-Dec-02 11:30N 29°53' E 122°03'0 0.0
2016-Dec-02 10:33N 29°53' E 122°03'0 0.0
2016-Dec-02 07:33N 29°53' E 122°03'0 0.0
2016-Dec-02 04:22N 29°53' E 122°03'0 0.0
2016-Dec-02 02:30N 29°53' E 122°03'4 4.3
2016-Dec-02 01:33N 29°55' E 122°07'1312.9
2016-Dec-02 00:33N 29°46' E 122°17'1715.8
2016-Dec-01 23:29N 29°41' E 122°36'  
2016-Nov-29 14:30N 30°27' E 122°46'  

Dump ship's entire track history